sensor_id;sensor_type;location;lat;lon;timestamp;temperature;humidity
70676;DHT22;59069;52.242;20.900;2023-07-13T00:01:18;19.41;82.89
70676;DHT22;59069;52.242;20.900;2023-07-13T00:03:44;19.40;82.91
70676;DHT22;59069;52.242;20.900;2023-07-13T00:06:09;19.41;82.93
70676;DHT22;59069;52.242;20.900;2023-07-13T00:08:35;19.41;82.97
70676;DHT22;59069;52.242;20.900;2023-07-13T00:11:02;19.41;82.95
70676;DHT22;59069;52.242;20.900;2023-07-13T00:13:28;19.40;82.90
70676;DHT22;59069;52.242;20.900;2023-07-13T00:15:54;19.40;82.92
70676;DHT22;59069;52.242;20.900;2023-07-13T00:18:21;19.38;82.93
70676;DHT22;59069;52.242;20.900;2023-07-13T00:20:47;19.37;82.92
70676;DHT22;59069;52.242;20.900;2023-07-13T00:23:13;19.35;82.94
70676;DHT22;59069;52.242;20.900;2023-07-13T00:25:38;19.34;82.87
70676;DHT22;59069;52.242;20.900;2023-07-13T00:28:04;19.34;82.88
70676;DHT22;59069;52.242;20.900;2023-07-13T00:30:29;19.28;82.90
70676;DHT22;59069;52.242;20.900;2023-07-13T00:32:55;19.27;83.05
70676;DHT22;59069;52.242;20.900;2023-07-13T00:35:21;19.23;83.16
70676;DHT22;59069;52.242;20.900;2023-07-13T00:37:46;19.17;83.29
70676;DHT22;59069;52.242;20.900;2023-07-13T00:40:13;19.17;83.39
70676;DHT22;59069;52.242;20.900;2023-07-13T00:42:39;19.16;83.44
70676;DHT22;59069;52.242;20.900;2023-07-13T00:47:36;19.12;83.50
70676;DHT22;59069;52.242;20.900;2023-07-13T00:50:03;19.09;83.61
70676;DHT22;59069;52.242;20.900;2023-07-13T00:52:30;19.09;83.56
70676;DHT22;59069;52.242;20.900;2023-07-13T00:54:56;19.06;83.64
70676;DHT22;59069;52.242;20.900;2023-07-13T00:57:22;19.04;83.76
70676;DHT22;59069;52.242;20.900;2023-07-13T00:59:52;19.06;83.76
70676;DHT22;59069;52.242;20.900;2023-07-13T01:02:19;19.06;83.78
70676;DHT22;59069;52.242;20.900;2023-07-13T01:04:45;19.06;83.86
70676;DHT22;59069;52.242;20.900;2023-07-13T01:07:11;19.09;83.88
70676;DHT22;59069;52.242;20.900;2023-07-13T01:09:37;19.09;83.84
70676;DHT22;59069;52.242;20.900;2023-07-13T01:12:02;19.07;83.86
70676;DHT22;59069;52.242;20.900;2023-07-13T01:14:28;19.06;83.91
70676;DHT22;59069;52.242;20.900;2023-07-13T01:16:54;19.06;83.92
70676;DHT22;59069;52.242;20.900;2023-07-13T01:22:11;19.04;84.03
70676;DHT22;59069;52.242;20.900;2023-07-13T01:24:40;19.02;84.13
70676;DHT22;59069;52.242;20.900;2023-07-13T01:27:07;19.00;84.17
70676;DHT22;59069;52.242;20.900;2023-07-13T01:29:35;19.03;84.21
70676;DHT22;59069;52.242;20.900;2023-07-13T01:32:02;18.99;84.24
70676;DHT22;59069;52.242;20.900;2023-07-13T01:34:27;18.99;84.27
70676;DHT22;59069;52.242;20.900;2023-07-13T01:36:53;18.98;84.30
70676;DHT22;59069;52.242;20.900;2023-07-13T01:39:22;18.95;84.34
70676;DHT22;59069;52.242;20.900;2023-07-13T01:41:47;18.95;84.30
70676;DHT22;59069;52.242;20.900;2023-07-13T01:44:13;18.93;84.32
70676;DHT22;59069;52.242;20.900;2023-07-13T01:46:39;18.91;84.31
70676;DHT22;59069;52.242;20.900;2023-07-13T01:49:04;18.91;84.40
70676;DHT22;59069;52.242;20.900;2023-07-13T01:51:30;18.88;84.44
70676;DHT22;59069;52.242;20.900;2023-07-13T01:53:55;18.85;84.47
70676;DHT22;59069;52.242;20.900;2023-07-13T01:56:20;18.82;84.53
70676;DHT22;59069;52.242;20.900;2023-07-13T01:58:46;18.85;84.61
70676;DHT22;59069;52.242;20.900;2023-07-13T02:01:11;18.82;84.68
70676;DHT22;59069;52.242;20.900;2023-07-13T02:03:37;18.81;84.74
70676;DHT22;59069;52.242;20.900;2023-07-13T02:06:02;18.81;84.74
70676;DHT22;59069;52.242;20.900;2023-07-13T02:08:28;18.76;84.75
70676;DHT22;59069;52.242;20.900;2023-07-13T02:10:53;18.77;84.86
70676;DHT22;59069;52.242;20.900;2023-07-13T02:13:19;18.79;84.94
70676;DHT22;59069;52.242;20.900;2023-07-13T02:15:44;18.77;84.97
70676;DHT22;59069;52.242;20.900;2023-07-13T02:18:10;18.76;85.09
70676;DHT22;59069;52.242;20.900;2023-07-13T02:20:35;18.76;85.05
70676;DHT22;59069;52.242;20.900;2023-07-13T02:23:01;18.77;85.17
70676;DHT22;59069;52.242;20.900;2023-07-13T02:25:26;18.82;85.24
70676;DHT22;59069;52.242;20.900;2023-07-13T02:27:52;18.83;85.33
70676;DHT22;59069;52.242;20.900;2023-07-13T02:30:18;18.88;85.29
70676;DHT22;59069;52.242;20.900;2023-07-13T02:32:44;18.89;85.21
70676;DHT22;59069;52.242;20.900;2023-07-13T02:35:10;18.91;85.11
70676;DHT22;59069;52.242;20.900;2023-07-13T02:37:35;18.92;85.15
70676;DHT22;59069;52.242;20.900;2023-07-13T02:40:01;18.96;85.05
70676;DHT22;59069;52.242;20.900;2023-07-13T02:42:33;18.98;85.01
70676;DHT22;59069;52.242;20.900;2023-07-13T02:44:58;19.02;84.95
70676;DHT22;59069;52.242;20.900;2023-07-13T02:47:23;19.03;84.90
70676;DHT22;59069;52.242;20.900;2023-07-13T02:49:49;19.06;84.86
70676;DHT22;59069;52.242;20.900;2023-07-13T02:52:14;19.09;84.67
70676;DHT22;59069;52.242;20.900;2023-07-13T02:54:40;19.09;84.67
70676;DHT22;59069;52.242;20.900;2023-07-13T02:57:05;19.09;84.51
70676;DHT22;59069;52.242;20.900;2023-07-13T02:59:31;19.07;84.37
70676;DHT22;59069;52.242;20.900;2023-07-13T03:01:57;19.09;84.34
70676;DHT22;59069;52.242;20.900;2023-07-13T03:04:22;19.10;84.45
70676;DHT22;59069;52.242;20.900;2023-07-13T03:06:47;19.09;84.49
70676;DHT22;59069;52.242;20.900;2023-07-13T03:09:13;19.10;84.45
70676;DHT22;59069;52.242;20.900;2023-07-13T03:11:38;19.10;84.35
70676;DHT22;59069;52.242;20.900;2023-07-13T03:14:04;19.12;84.39
70676;DHT22;59069;52.242;20.900;2023-07-13T03:16:29;19.10;84.45
70676;DHT22;59069;52.242;20.900;2023-07-13T03:18:55;19.10;84.54
70676;DHT22;59069;52.242;20.900;2023-07-13T03:21:20;19.12;84.56
70676;DHT22;59069;52.242;20.900;2023-07-13T03:23:46;19.10;84.56
70676;DHT22;59069;52.242;20.900;2023-07-13T03:26:17;19.12;84.62
70676;DHT22;59069;52.242;20.900;2023-07-13T03:28:43;19.13;84.63
70676;DHT22;59069;52.242;20.900;2023-07-13T03:31:16;19.14;84.70
70676;DHT22;59069;52.242;20.900;2023-07-13T03:33:42;19.16;84.80
70676;DHT22;59069;52.242;20.900;2023-07-13T03:36:12;19.19;84.69
70676;DHT22;59069;52.242;20.900;2023-07-13T03:38:38;19.24;84.58
70676;DHT22;59069;52.242;20.900;2023-07-13T03:41:03;19.28;84.60
70676;DHT22;59069;52.242;20.900;2023-07-13T03:43:29;19.34;84.60
70676;DHT22;59069;52.242;20.900;2023-07-13T03:45:55;19.37;84.58
70676;DHT22;59069;52.242;20.900;2023-07-13T03:48:20;19.41;84.40
70676;DHT22;59069;52.242;20.900;2023-07-13T03:50:47;19.47;84.34
70676;DHT22;59069;52.242;20.900;2023-07-13T03:53:13;19.58;84.25
70676;DHT22;59069;52.242;20.900;2023-07-13T03:55:38;19.65;84.16
70676;DHT22;59069;52.242;20.900;2023-07-13T03:58:26;19.74;83.99
70676;DHT22;59069;52.242;20.900;2023-07-13T04:00:52;19.84;83.85
70676;DHT22;59069;52.242;20.900;2023-07-13T04:03:18;19.94;83.62
70676;DHT22;59069;52.242;20.900;2023-07-13T04:05:43;20.04;83.44
70676;DHT22;59069;52.242;20.900;2023-07-13T04:08:09;20.13;83.21
70676;DHT22;59069;52.242;20.900;2023-07-13T04:10:34;20.23;82.97
70676;DHT22;59069;52.242;20.900;2023-07-13T04:12:59;20.35;82.90
70676;DHT22;59069;52.242;20.900;2023-07-13T04:15:28;20.45;82.60
70676;DHT22;59069;52.242;20.900;2023-07-13T04:17:54;20.59;82.22
70676;DHT22;59069;52.242;20.900;2023-07-13T04:20:19;20.73;81.75
70676;DHT22;59069;52.242;20.900;2023-07-13T04:22:45;20.87;81.12
70676;DHT22;59069;52.242;20.900;2023-07-13T04:25:11;20.97;80.71
70676;DHT22;59069;52.242;20.900;2023-07-13T04:27:36;20.98;80.20
70676;DHT22;59069;52.242;20.900;2023-07-13T04:30:02;21.01;79.80
70676;DHT22;59069;52.242;20.900;2023-07-13T04:32:27;21.01;79.70
70676;DHT22;59069;52.242;20.900;2023-07-13T04:34:52;21.03;79.82
70676;DHT22;59069;52.242;20.900;2023-07-13T04:37:20;21.05;79.69
70676;DHT22;59069;52.242;20.900;2023-07-13T04:39:46;21.04;79.59
70676;DHT22;59069;52.242;20.900;2023-07-13T04:42:12;21.07;79.51
70676;DHT22;59069;52.242;20.900;2023-07-13T04:44:37;21.07;79.53
70676;DHT22;59069;52.242;20.900;2023-07-13T04:47:03;21.07;79.55
70676;DHT22;59069;52.242;20.900;2023-07-13T04:49:28;21.08;79.62
70676;DHT22;59069;52.242;20.900;2023-07-13T04:51:54;21.10;79.72
70676;DHT22;59069;52.242;20.900;2023-07-13T04:54:20;21.14;79.93
70676;DHT22;59069;52.242;20.900;2023-07-13T04:56:45;21.17;80.01
70676;DHT22;59069;52.242;20.900;2023-07-13T04:59:10;21.20;80.08
70676;DHT22;59069;52.242;20.900;2023-07-13T05:01:36;21.21;80.20
70676;DHT22;59069;52.242;20.900;2023-07-13T05:04:01;21.25;80.30
70676;DHT22;59069;52.242;20.900;2023-07-13T05:06:27;21.34;80.38
70676;DHT22;59069;52.242;20.900;2023-07-13T05:08:53;21.37;80.39
70676;DHT22;59069;52.242;20.900;2023-07-13T05:11:19;21.41;80.31
70676;DHT22;59069;52.242;20.900;2023-07-13T05:13:44;21.45;80.21
70676;DHT22;59069;52.242;20.900;2023-07-13T05:16:09;21.51;80.27
70676;DHT22;59069;52.242;20.900;2023-07-13T05:18:35;21.56;80.40
70676;DHT22;59069;52.242;20.900;2023-07-13T05:21:10;21.63;80.36
70676;DHT22;59069;52.242;20.900;2023-07-13T05:23:36;21.65;80.17
70676;DHT22;59069;52.242;20.900;2023-07-13T05:26:02;21.72;80.05
70676;DHT22;59069;52.242;20.900;2023-07-13T05:28:29;21.78;79.67
70676;DHT22;59069;52.242;20.900;2023-07-13T05:30:55;21.79;79.40
70676;DHT22;59069;52.242;20.900;2023-07-13T05:33:20;21.83;79.25
70676;DHT22;59069;52.242;20.900;2023-07-13T05:35:46;21.85;79.28
70676;DHT22;59069;52.242;20.900;2023-07-13T05:38:12;21.92;79.21
70676;DHT22;59069;52.242;20.900;2023-07-13T05:40:37;21.95;79.10
70676;DHT22;59069;52.242;20.900;2023-07-13T05:43:03;22.00;79.23
70676;DHT22;59069;52.242;20.900;2023-07-13T05:45:29;22.00;78.99
70676;DHT22;59069;52.242;20.900;2023-07-13T05:47:54;22.05;78.72
70676;DHT22;59069;52.242;20.900;2023-07-13T05:50:20;22.10;78.49
70676;DHT22;59069;52.242;20.900;2023-07-13T05:52:46;22.10;78.45
70676;DHT22;59069;52.242;20.900;2023-07-13T05:55:11;22.14;78.35
70676;DHT22;59069;52.242;20.900;2023-07-13T05:57:37;22.17;78.14
70676;DHT22;59069;52.242;20.900;2023-07-13T06:00:02;22.20;78.15
70676;DHT22;59069;52.242;20.900;2023-07-13T06:02:28;22.26;78.29
70676;DHT22;59069;52.242;20.900;2023-07-13T06:04:53;22.33;78.45
70676;DHT22;59069;52.242;20.900;2023-07-13T06:07:19;22.41;78.40
70676;DHT22;59069;52.242;20.900;2023-07-13T06:09:44;22.47;78.37
70676;DHT22;59069;52.242;20.900;2023-07-13T06:12:10;22.57;78.25
70676;DHT22;59069;52.242;20.900;2023-07-13T06:14:35;22.60;77.93
70676;DHT22;59069;52.242;20.900;2023-07-13T06:17:00;22.65;77.41
70676;DHT22;59069;52.242;20.900;2023-07-13T06:19:26;22.68;77.28
70676;DHT22;59069;52.242;20.900;2023-07-13T06:21:51;22.83;77.53
70676;DHT22;59069;52.242;20.900;2023-07-13T06:24:16;22.90;77.08
70676;DHT22;59069;52.242;20.900;2023-07-13T06:26:42;22.99;77.27
70676;DHT22;59069;52.242;20.900;2023-07-13T06:29:07;23.11;76.78
70676;DHT22;59069;52.242;20.900;2023-07-13T06:31:33;23.25;76.37
70676;DHT22;59069;52.242;20.900;2023-07-13T06:33:58;23.36;75.91
70676;DHT22;59069;52.242;20.900;2023-07-13T06:36:24;23.50;75.34
70676;DHT22;59069;52.242;20.900;2023-07-13T06:38:49;23.60;74.65
70676;DHT22;59069;52.242;20.900;2023-07-13T06:41:14;23.70;74.30
70676;DHT22;59069;52.242;20.900;2023-07-13T06:43:40;23.80;73.46
70676;DHT22;59069;52.242;20.900;2023-07-13T06:46:06;23.90;72.72
70676;DHT22;59069;52.242;20.900;2023-07-13T06:48:31;23.98;72.20
70676;DHT22;59069;52.242;20.900;2023-07-13T06:50:57;24.07;71.27
70676;DHT22;59069;52.242;20.900;2023-07-13T06:53:23;24.16;70.65
70676;DHT22;59069;52.242;20.900;2023-07-13T06:55:48;24.25;70.14
70676;DHT22;59069;52.242;20.900;2023-07-13T06:58:16;24.41;69.88
70676;DHT22;59069;52.242;20.900;2023-07-13T07:00:42;24.49;67.91
70676;DHT22;59069;52.242;20.900;2023-07-13T07:03:07;24.58;65.33
70676;DHT22;59069;52.242;20.900;2023-07-13T07:05:33;24.61;62.94
70676;DHT22;59069;52.242;20.900;2023-07-13T07:07:59;24.64;61.25
70676;DHT22;59069;52.242;20.900;2023-07-13T07:10:25;24.72;60.71
70676;DHT22;59069;52.242;20.900;2023-07-13T07:12:50;24.85;60.67
70676;DHT22;59069;52.242;20.900;2023-07-13T07:15:17;24.99;59.83
70676;DHT22;59069;52.242;20.900;2023-07-13T07:17:42;25.13;59.85
70676;DHT22;59069;52.242;20.900;2023-07-13T07:20:09;25.30;59.59
70676;DHT22;59069;52.242;20.900;2023-07-13T07:22:34;25.44;58.53
70676;DHT22;59069;52.242;20.900;2023-07-13T07:25:00;25.53;56.95
70676;DHT22;59069;52.242;20.900;2023-07-13T07:27:25;25.57;55.41
70676;DHT22;59069;52.242;20.900;2023-07-13T07:29:51;25.63;54.92
70676;DHT22;59069;52.242;20.900;2023-07-13T07:32:16;25.78;54.65
70676;DHT22;59069;52.242;20.900;2023-07-13T07:34:42;25.92;54.13
70676;DHT22;59069;52.242;20.900;2023-07-13T07:37:11;26.01;53.45
70676;DHT22;59069;52.242;20.900;2023-07-13T07:39:37;26.08;53.02
70676;DHT22;59069;52.242;20.900;2023-07-13T07:42:02;26.12;53.20
70676;DHT22;59069;52.242;20.900;2023-07-13T07:44:28;26.19;53.03
70676;DHT22;59069;52.242;20.900;2023-07-13T07:46:53;26.21;53.22
70676;DHT22;59069;52.242;20.900;2023-07-13T07:49:19;26.26;53.07
70676;DHT22;59069;52.242;20.900;2023-07-13T07:51:45;26.38;52.56
70676;DHT22;59069;52.242;20.900;2023-07-13T07:54:11;26.49;51.84
70676;DHT22;59069;52.242;20.900;2023-07-13T07:56:36;26.59;50.97
70676;DHT22;59069;52.242;20.900;2023-07-13T07:59:01;26.69;50.57
70676;DHT22;59069;52.242;20.900;2023-07-13T08:01:27;26.75;50.39
70676;DHT22;59069;52.242;20.900;2023-07-13T08:03:52;26.82;50.26
70676;DHT22;59069;52.242;20.900;2023-07-13T08:06:17;26.91;50.64
70676;DHT22;59069;52.242;20.900;2023-07-13T08:08:45;27.01;49.87
70676;DHT22;59069;52.242;20.900;2023-07-13T08:11:10;27.10;49.45
70676;DHT22;59069;52.242;20.900;2023-07-13T08:13:37;27.17;49.08
70676;DHT22;59069;52.242;20.900;2023-07-13T08:16:04;27.20;48.87
70676;DHT22;59069;52.242;20.900;2023-07-13T08:18:30;27.29;49.15
70676;DHT22;59069;52.242;20.900;2023-07-13T08:20:55;27.31;49.14
70676;DHT22;59069;52.242;20.900;2023-07-13T08:23:24;27.42;48.42
70676;DHT22;59069;52.242;20.900;2023-07-13T08:25:51;27.54;48.20
70676;DHT22;59069;52.242;20.900;2023-07-13T08:28:16;27.66;48.15
70676;DHT22;59069;52.242;20.900;2023-07-13T08:30:42;27.78;47.61
70676;DHT22;59069;52.242;20.900;2023-07-13T08:33:07;27.82;47.02
70676;DHT22;59069;52.242;20.900;2023-07-13T08:35:32;27.92;47.28
70676;DHT22;59069;52.242;20.900;2023-07-13T08:37:58;28.02;46.86
70676;DHT22;59069;52.242;20.900;2023-07-13T08:40:25;28.01;46.50
70676;DHT22;59069;52.242;20.900;2023-07-13T08:42:58;28.10;46.63
70676;DHT22;59069;52.242;20.900;2023-07-13T08:45:30;28.14;46.99
70676;DHT22;59069;52.242;20.900;2023-07-13T08:48:09;28.24;46.65
70676;DHT22;59069;52.242;20.900;2023-07-13T08:50:50;28.32;46.71
70676;DHT22;59069;52.242;20.900;2023-07-13T08:53:17;28.23;46.53
70676;DHT22;59069;52.242;20.900;2023-07-13T08:55:43;28.32;46.76
70676;DHT22;59069;52.242;20.900;2023-07-13T08:58:14;28.36;46.89
70676;DHT22;59069;52.242;20.900;2023-07-13T09:03:25;28.56;46.66
70676;DHT22;59069;52.242;20.900;2023-07-13T09:05:58;28.60;46.43
70676;DHT22;59069;52.242;20.900;2023-07-13T09:14:11;28.68;45.94
70676;DHT22;59069;52.242;20.900;2023-07-13T09:16:38;28.60;46.60
70676;DHT22;59069;52.242;20.900;2023-07-13T09:19:07;28.59;46.73
70676;DHT22;59069;52.242;20.900;2023-07-13T09:21:38;28.61;46.53
70676;DHT22;59069;52.242;20.900;2023-07-13T09:24:28;28.63;46.62
70676;DHT22;59069;52.242;20.900;2023-07-13T09:26:56;28.68;46.59
70676;DHT22;59069;52.242;20.900;2023-07-13T09:29:31;28.64;46.13
70676;DHT22;59069;52.242;20.900;2023-07-13T09:32:02;28.64;46.16
70676;DHT22;59069;52.242;20.900;2023-07-13T09:34:29;28.57;45.98
70676;DHT22;59069;52.242;20.900;2023-07-13T09:36:56;28.32;46.38
70676;DHT22;59069;52.242;20.900;2023-07-13T09:39:35;28.06;47.20
70676;DHT22;59069;52.242;20.900;2023-07-13T09:44:37;27.68;48.22
70676;DHT22;59069;52.242;20.900;2023-07-13T09:47:12;27.50;48.01
70676;DHT22;59069;52.242;20.900;2023-07-13T09:49:39;27.33;48.34
70676;DHT22;59069;52.242;20.900;2023-07-13T09:52:09;27.20;48.48
70676;DHT22;59069;52.242;20.900;2023-07-13T09:54:36;27.15;48.82
70676;DHT22;59069;52.242;20.900;2023-07-13T09:57:09;27.11;48.82
70676;DHT22;59069;52.242;20.900;2023-07-13T09:59:40;27.03;48.50
70676;DHT22;59069;52.242;20.900;2023-07-13T10:04:56;26.89;48.82
70676;DHT22;59069;52.242;20.900;2023-07-13T10:07:23;26.76;48.83
70676;DHT22;59069;52.242;20.900;2023-07-13T10:09:53;26.56;48.92
70676;DHT22;59069;52.242;20.900;2023-07-13T10:12:20;26.32;49.05
70676;DHT22;59069;52.242;20.900;2023-07-13T10:14:46;26.05;49.48
70676;DHT22;59069;52.242;20.900;2023-07-13T10:17:13;25.80;49.84
70676;DHT22;59069;52.242;20.900;2023-07-13T10:19:41;25.57;50.61
70676;DHT22;59069;52.242;20.900;2023-07-13T10:22:45;25.31;52.32
70676;DHT22;59069;52.242;20.900;2023-07-13T10:25:21;25.02;53.85
70676;DHT22;59069;52.242;20.900;2023-07-13T10:27:50;24.75;55.14
70676;DHT22;59069;52.242;20.900;2023-07-13T10:30:30;24.44;56.99
70676;DHT22;59069;52.242;20.900;2023-07-13T10:33:02;24.17;58.64
70676;DHT22;59069;52.242;20.900;2023-07-13T10:35:29;23.83;60.47
70676;DHT22;59069;52.242;20.900;2023-07-13T10:38:02;23.50;62.01
70676;DHT22;59069;52.242;20.900;2023-07-13T10:40:40;23.19;63.84
70676;DHT22;59069;52.242;20.900;2023-07-13T10:43:18;22.94;65.61
70676;DHT22;59069;52.242;20.900;2023-07-13T10:45:46;22.69;66.46
70676;DHT22;59069;52.242;20.900;2023-07-13T10:48:15;22.46;67.58
70676;DHT22;59069;52.242;20.900;2023-07-13T10:50:44;22.20;68.63
70676;DHT22;59069;52.242;20.900;2023-07-13T10:53:32;21.93;69.68
70676;DHT22;59069;52.242;20.900;2023-07-13T10:58:33;21.46;72.03
70676;DHT22;59069;52.242;20.900;2023-07-13T11:01:14;21.28;72.87
70676;DHT22;59069;52.242;20.900;2023-07-13T11:13:58;20.69;75.44
70676;DHT22;59069;52.242;20.900;2023-07-13T11:21:32;20.46;76.64
70676;DHT22;59069;52.242;20.900;2023-07-13T11:31:42;20.18;78.53
70676;DHT22;59069;52.242;20.900;2023-07-13T11:34:14;20.12;78.08
70676;DHT22;59069;52.242;20.900;2023-07-13T11:36:43;20.01;78.04
70676;DHT22;59069;52.242;20.900;2023-07-13T11:39:31;19.94;78.52
70676;DHT22;59069;52.242;20.900;2023-07-13T11:42:00;19.85;78.83
70676;DHT22;59069;52.242;20.900;2023-07-13T11:44:28;19.79;79.38
70676;DHT22;59069;52.242;20.900;2023-07-13T11:46:57;19.71;79.90
70676;DHT22;59069;52.242;20.900;2023-07-13T11:49:26;19.71;80.09
70676;DHT22;59069;52.242;20.900;2023-07-13T11:51:53;19.74;80.45
70676;DHT22;59069;52.242;20.900;2023-07-13T11:57:34;19.71;80.65
70676;DHT22;59069;52.242;20.900;2023-07-13T12:00:03;19.75;80.78
70676;DHT22;59069;52.242;20.900;2023-07-13T12:02:32;19.77;80.56
70676;DHT22;59069;52.242;20.900;2023-07-13T12:04:58;19.79;80.70
70676;DHT22;59069;52.242;20.900;2023-07-13T12:07:28;19.85;81.22
70676;DHT22;59069;52.242;20.900;2023-07-13T12:10:01;19.89;81.36
70676;DHT22;59069;52.242;20.900;2023-07-13T12:12:28;19.91;81.65
70676;DHT22;59069;52.242;20.900;2023-07-13T12:14:54;19.92;81.60
70676;DHT22;59069;52.242;20.900;2023-07-13T12:17:22;19.92;81.04
70676;DHT22;59069;52.242;20.900;2023-07-13T12:19:48;19.92;81.64
70676;DHT22;59069;52.242;20.900;2023-07-13T12:22:17;19.92;81.80
70676;DHT22;59069;52.242;20.900;2023-07-13T12:24:44;19.91;81.92
70676;DHT22;59069;52.242;20.900;2023-07-13T12:27:25;19.86;82.27
70676;DHT22;59069;52.242;20.900;2023-07-13T12:29:57;19.84;82.53
70676;DHT22;59069;52.242;20.900;2023-07-13T12:32:24;19.82;82.30
70676;DHT22;59069;52.242;20.900;2023-07-13T12:34:55;19.78;82.00
70676;DHT22;59069;52.242;20.900;2023-07-13T12:37:21;19.79;81.95
70676;DHT22;59069;52.242;20.900;2023-07-13T12:39:48;19.78;81.93
70676;DHT22;59069;52.242;20.900;2023-07-13T12:44:51;19.82;82.13
70676;DHT22;59069;52.242;20.900;2023-07-13T12:47:20;19.86;82.25
70676;DHT22;59069;52.242;20.900;2023-07-13T12:49:54;19.92;82.62
70676;DHT22;59069;52.242;20.900;2023-07-13T12:52:28;19.94;82.58
70676;DHT22;59069;52.242;20.900;2023-07-13T12:55:19;20.01;82.56
70676;DHT22;59069;52.242;20.900;2023-07-13T12:57:51;20.05;82.71
70676;DHT22;59069;52.242;20.900;2023-07-13T13:02:50;20.15;82.41
70676;DHT22;59069;52.242;20.900;2023-07-13T13:05:16;20.19;82.63
70676;DHT22;59069;52.242;20.900;2023-07-13T13:07:41;20.28;82.72
70676;DHT22;59069;52.242;20.900;2023-07-13T13:10:14;20.35;82.50
70676;DHT22;59069;52.242;20.900;2023-07-13T13:12:40;20.43;82.31
70676;DHT22;59069;52.242;20.900;2023-07-13T13:15:09;20.52;82.05
70676;DHT22;59069;52.242;20.900;2023-07-13T13:17:36;20.56;81.82
70676;DHT22;59069;52.242;20.900;2023-07-13T13:20:13;20.62;81.96
70676;DHT22;59069;52.242;20.900;2023-07-13T13:22:39;20.67;82.41
70676;DHT22;59069;52.242;20.900;2023-07-13T13:25:06;20.73;82.56
70676;DHT22;59069;52.242;20.900;2023-07-13T13:27:33;20.77;82.09
70676;DHT22;59069;52.242;20.900;2023-07-13T13:30:00;20.83;81.20
70676;DHT22;59069;52.242;20.900;2023-07-13T13:32:25;20.83;80.44
70676;DHT22;59069;52.242;20.900;2023-07-13T13:34:50;20.84;80.24
70676;DHT22;59069;52.242;20.900;2023-07-13T13:37:21;20.88;80.60
70676;DHT22;59069;52.242;20.900;2023-07-13T13:39:47;20.90;81.07
70676;DHT22;59069;52.242;20.900;2023-07-13T13:42:13;20.94;81.49
70676;DHT22;59069;52.242;20.900;2023-07-13T13:44:39;20.91;81.67
70676;DHT22;59069;52.242;20.900;2023-07-13T13:47:29;20.93;81.90
70676;DHT22;59069;52.242;20.900;2023-07-13T13:49:54;20.94;82.00
70676;DHT22;59069;52.242;20.900;2023-07-13T13:52:19;21.00;82.13
70676;DHT22;59069;52.242;20.900;2023-07-13T13:54:44;21.03;82.22
70676;DHT22;59069;52.242;20.900;2023-07-13T13:57:10;21.01;82.32
70676;DHT22;59069;52.242;20.900;2023-07-13T13:59:38;21.03;82.12
70676;DHT22;59069;52.242;20.900;2023-07-13T14:02:19;21.05;82.04
70676;DHT22;59069;52.242;20.900;2023-07-13T14:04:49;21.08;81.90
70676;DHT22;59069;52.242;20.900;2023-07-13T14:07:15;21.10;81.13
70676;DHT22;59069;52.242;20.900;2023-07-13T14:09:41;21.11;80.71
70676;DHT22;59069;52.242;20.900;2023-07-13T14:12:09;21.11;80.77
70676;DHT22;59069;52.242;20.900;2023-07-13T14:14:37;21.14;80.77
70676;DHT22;59069;52.242;20.900;2023-07-13T14:17:03;21.14;81.15
70676;DHT22;59069;52.242;20.900;2023-07-13T14:19:29;21.11;81.10
70676;DHT22;59069;52.242;20.900;2023-07-13T14:21:55;21.11;81.20
70676;DHT22;59069;52.242;20.900;2023-07-13T14:24:20;21.11;81.07
70676;DHT22;59069;52.242;20.900;2023-07-13T14:26:47;21.10;80.99
70676;DHT22;59069;52.242;20.900;2023-07-13T14:29:18;21.12;80.91
70676;DHT22;59069;52.242;20.900;2023-07-13T14:31:44;21.10;80.73
70676;DHT22;59069;52.242;20.900;2023-07-13T14:34:10;21.08;80.62
70676;DHT22;59069;52.242;20.900;2023-07-13T14:36:42;21.11;80.27
70676;DHT22;59069;52.242;20.900;2023-07-13T14:39:21;21.12;79.99
70676;DHT22;59069;52.242;20.900;2023-07-13T14:41:53;21.15;80.21
70676;DHT22;59069;52.242;20.900;2023-07-13T14:44:26;21.17;80.28
70676;DHT22;59069;52.242;20.900;2023-07-13T14:46:52;21.20;80.34
70676;DHT22;59069;52.242;20.900;2023-07-13T14:49:30;21.17;80.49
70676;DHT22;59069;52.242;20.900;2023-07-13T14:51:58;21.17;80.50
70676;DHT22;59069;52.242;20.900;2023-07-13T14:54:24;21.12;80.58
70676;DHT22;59069;52.242;20.900;2023-07-13T14:56:49;21.12;80.90
70676;DHT22;59069;52.242;20.900;2023-07-13T14:59:16;21.10;81.05
70676;DHT22;59069;52.242;20.900;2023-07-13T15:01:43;21.11;80.99
70676;DHT22;59069;52.242;20.900;2023-07-13T15:04:09;21.12;80.74
70676;DHT22;59069;52.242;20.900;2023-07-13T15:06:57;21.11;80.68
70676;DHT22;59069;52.242;20.900;2023-07-13T15:09:23;21.12;80.84
70676;DHT22;59069;52.242;20.900;2023-07-13T15:11:52;21.15;81.12
70676;DHT22;59069;52.242;20.900;2023-07-13T15:14:17;21.14;81.01
70676;DHT22;59069;52.242;20.900;2023-07-13T15:16:49;21.14;81.15
70676;DHT22;59069;52.242;20.900;2023-07-13T15:19:17;21.15;81.04
70676;DHT22;59069;52.242;20.900;2023-07-13T15:21:43;21.12;81.05
70676;DHT22;59069;52.242;20.900;2023-07-13T15:24:10;21.04;81.21
70676;DHT22;59069;52.242;20.900;2023-07-13T15:26:36;21.04;81.34
70676;DHT22;59069;52.242;20.900;2023-07-13T15:29:02;21.00;81.34
70676;DHT22;59069;52.242;20.900;2023-07-13T15:31:28;20.97;81.50
70676;DHT22;59069;52.242;20.900;2023-07-13T15:33:55;20.97;81.72
70676;DHT22;59069;52.242;20.900;2023-07-13T15:36:23;20.98;81.86
70676;DHT22;59069;52.242;20.900;2023-07-13T15:38:51;20.95;81.80
70676;DHT22;59069;52.242;20.900;2023-07-13T15:43:42;20.91;82.02
70676;DHT22;59069;52.242;20.900;2023-07-13T15:46:08;20.90;82.08
70676;DHT22;59069;52.242;20.900;2023-07-13T15:48:34;20.90;82.13
70676;DHT22;59069;52.242;20.900;2023-07-13T15:51:04;20.87;82.00
70676;DHT22;59069;52.242;20.900;2023-07-13T15:53:34;20.86;81.93
70676;DHT22;59069;52.242;20.900;2023-07-13T15:56:03;20.84;81.88
70676;DHT22;59069;52.242;20.900;2023-07-13T15:58:36;20.86;81.93
70676;DHT22;59069;52.242;20.900;2023-07-13T16:01:03;20.86;81.93
70676;DHT22;59069;52.242;20.900;2023-07-13T16:03:29;20.87;81.89
70676;DHT22;59069;52.242;20.900;2023-07-13T16:05:55;20.86;82.10
70676;DHT22;59069;52.242;20.900;2023-07-13T16:08:25;20.88;82.31
70676;DHT22;59069;52.242;20.900;2023-07-13T16:10:52;20.93;82.32
70676;DHT22;59069;52.242;20.900;2023-07-13T16:13:19;20.97;82.22